createdAt,value
2022-11-10T00:02:08.805Z,96443.63
2022-11-10T00:04:54.072Z,96426.69
2022-11-10T00:07:39.605Z,96396.25
2022-11-10T00:10:24.577Z,96424.97
2022-11-10T00:13:09.897Z,96436.47
2022-11-10T00:16:13.815Z,96449.34
2022-11-10T00:18:59.002Z,96455.13
2022-11-10T00:21:44.340Z,96437.25
2022-11-10T00:24:29.682Z,96447.78
2022-11-10T00:27:15.016Z,96413.97
2022-11-10T00:30:00.764Z,96455.88
2022-11-10T00:32:48.228Z,96437.56
2022-11-10T00:35:33.487Z,96449.13
2022-11-10T00:38:18.819Z,96467.19
2022-11-10T00:41:04.780Z,96428.78
2022-11-10T00:43:50.095Z,96468.44
2022-11-10T00:46:35.323Z,96444.53
2022-11-10T00:49:20.514Z,96471.41
2022-11-10T00:52:05.892Z,96489.97
2022-11-10T00:54:50.937Z,96457.84
2022-11-10T00:57:36.368Z,96484.69
2022-11-10T01:00:21.874Z,96503.41
2022-11-10T01:03:07.274Z,96509.16
2022-11-10T01:05:52.152Z,96482.59
2022-11-10T01:08:38.298Z,96527.16
2022-11-10T01:11:25.697Z,96531.16
2022-11-10T01:14:10.664Z,96468.00
2022-11-10T01:16:55.953Z,96528.09
2022-11-10T01:19:42.578Z,96532.09
2022-11-10T01:22:27.542Z,96520.66
2022-11-10T01:25:13.073Z,96486.09
2022-11-10T01:27:58.240Z,96513.97
2022-11-10T01:30:43.462Z,96505.41
2022-11-10T01:33:29.163Z,96508.69
2022-11-10T01:36:14.289Z,96530.41
2022-11-10T01:39:00.964Z,96546.09
2022-11-10T01:41:45.838Z,96500.03
2022-11-10T01:44:31.228Z,96516.41
2022-11-10T01:47:16.469Z,96542.16
2022-11-10T01:50:02.053Z,96512.63
2022-11-10T01:52:50.725Z,96549.06
2022-11-10T01:55:39.417Z,96524.75
2022-11-10T01:58:30.444Z,96558.00
2022-11-10T02:01:15.960Z,96512.03
2022-11-10T02:04:08.425Z,96537.59
2022-11-10T02:06:54.541Z,96540.41
2022-11-10T02:09:39.807Z,96516.94
2022-11-10T02:12:37.297Z,96534.13
2022-11-10T02:15:22.961Z,96538.34
2022-11-10T02:18:08.091Z,96524.22
2022-11-10T02:20:53.266Z,96528.56
2022-11-10T02:23:38.536Z,96580.00
2022-11-10T02:26:27.887Z,96584.00
2022-11-10T02:29:13.493Z,96599.09
2022-11-10T02:31:58.441Z,96545.03
2022-11-10T02:34:43.916Z,96581.50
2022-11-10T02:37:29.060Z,96592.25
2022-11-10T02:40:14.321Z,96593.09
2022-11-10T02:42:59.638Z,96573.66
2022-11-10T02:45:45.994Z,96607.16
2022-11-10T02:48:31.539Z,96597.84
2022-11-10T02:51:16.757Z,96568.78
2022-11-10T02:54:01.995Z,96609.88
2022-11-10T02:56:47.374Z,96565.25
2022-11-10T02:59:32.947Z,96643.78
2022-11-10T03:02:18.362Z,96649.72
2022-11-10T03:05:03.916Z,96625.50
2022-11-10T03:07:56.636Z,96660.22
2022-11-10T03:10:42.251Z,96660.81
2022-11-10T03:13:35.637Z,96658.28
2022-11-10T03:16:32.789Z,96658.47
2022-11-10T03:19:18.079Z,96689.31
2022-11-10T03:22:03.334Z,96690.97
2022-11-10T03:24:48.669Z,96669.88
2022-11-10T03:27:34.012Z,96680.09
2022-11-10T03:30:19.214Z,96647.09
2022-11-10T03:33:04.917Z,96685.25
2022-11-10T03:35:49.863Z,96714.34
2022-11-10T03:38:35.305Z,96683.97
2022-11-10T03:41:21.105Z,96708.41
2022-11-10T03:44:06.987Z,96678.34
2022-11-10T03:46:52.039Z,96704.16
2022-11-10T03:49:37.129Z,96654.06
2022-11-10T03:52:22.440Z,96696.09
2022-11-10T03:55:08.110Z,96625.06
2022-11-10T03:57:53.278Z,96640.22
2022-11-10T04:00:38.588Z,96720.13
2022-11-10T04:03:24.996Z,96728.19
2022-11-10T04:06:30.542Z,96723.91
2022-11-10T04:09:15.708Z,96705.59
2022-11-10T04:12:24.490Z,96737.22
2022-11-10T04:15:30.230Z,96757.41
2022-11-10T04:18:21.404Z,96749.47
2022-11-10T04:21:06.715Z,96766.06
2022-11-10T04:23:51.988Z,96737.91
2022-11-10T04:26:38.812Z,96784.44
2022-11-10T04:29:24.382Z,96767.44
2022-11-10T04:32:09.612Z,96728.75
2022-11-10T04:34:54.804Z,96739.84
2022-11-10T04:37:40.253Z,96782.25
2022-11-10T04:40:25.457Z,96729.06
2022-11-10T04:43:10.880Z,96766.03
2022-11-10T04:45:56.928Z,96740.28
2022-11-10T04:48:41.798Z,96771.09
2022-11-10T04:51:33.443Z,96792.59
2022-11-10T04:54:19.011Z,96785.59
2022-11-10T04:57:04.255Z,96738.06
2022-11-10T04:59:49.667Z,96794.47
2022-11-10T05:02:39.353Z,96799.66
2022-11-10T05:05:25.218Z,96810.66
2022-11-10T05:08:10.692Z,96804.94
2022-11-10T05:10:55.999Z,96819.75
2022-11-10T05:13:41.899Z,96795.97
2022-11-10T05:16:27.184Z,96832.50
2022-11-10T05:19:12.612Z,96845.03
2022-11-10T05:21:58.064Z,96831.78
2022-11-10T05:24:43.246Z,96821.16
2022-11-10T05:27:29.927Z,96831.56
2022-11-10T05:30:15.659Z,96813.63
2022-11-10T05:33:00.621Z,96840.59
2022-11-10T05:35:45.929Z,96830.44
2022-11-10T05:38:31.282Z,96841.13
2022-11-10T05:41:16.638Z,96839.22
2022-11-10T05:44:01.974Z,96868.03
2022-11-10T05:46:48.318Z,96834.78
2022-11-10T05:49:33.646Z,96895.81
2022-11-10T05:52:18.849Z,96857.53
2022-11-10T05:55:04.357Z,96858.25
2022-11-10T05:57:51.383Z,96900.34
2022-11-10T06:00:36.785Z,96866.94
2022-11-10T06:03:22.220Z,96895.38
2022-11-10T06:06:08.183Z,96893.56
2022-11-10T06:08:53.482Z,96918.09
2022-11-10T06:11:38.893Z,96878.50
2022-11-10T06:14:24.127Z,96907.16
2022-11-10T06:17:09.351Z,96887.00
2022-11-10T06:19:54.666Z,96868.56
2022-11-10T06:22:40.626Z,96915.34
2022-11-10T06:25:26.567Z,96930.75
2022-11-10T06:28:11.482Z,96920.59
2022-11-10T06:30:59.017Z,96973.84
2022-11-10T06:33:44.515Z,96938.63
2022-11-10T06:36:29.370Z,96957.69
2022-11-10T06:39:14.768Z,96983.28
2022-11-10T06:41:59.964Z,96983.59
2022-11-10T06:44:45.244Z,96880.75
2022-11-10T06:47:30.454Z,96978.34
2022-11-10T06:50:15.689Z,96956.97
2022-11-10T06:53:01.166Z,97002.75
2022-11-10T06:55:46.422Z,96958.09
2022-11-10T06:58:31.904Z,97036.47
2022-11-10T07:01:22.126Z,97035.94
2022-11-10T07:04:19.834Z,97038.53
2022-11-10T07:07:06.001Z,96987.34
2022-11-10T07:09:51.041Z,97041.91
2022-11-10T07:12:36.494Z,97042.72
2022-11-10T07:15:21.539Z,96998.56
2022-11-10T07:18:06.873Z,96999.34
2022-11-10T07:20:52.074Z,97057.59
2022-11-10T07:23:37.436Z,97051.88
2022-11-10T07:26:22.754Z,97040.84
2022-11-10T07:29:07.959Z,97037.19
2022-11-10T07:31:53.559Z,97059.66
2022-11-10T07:34:38.600Z,97083.41
2022-11-10T07:37:24.135Z,97057.00
2022-11-10T07:40:10.303Z,97061.63
2022-11-10T07:42:55.338Z,97073.84
2022-11-10T07:45:40.569Z,97050.56
2022-11-10T07:48:25.787Z,97023.66
2022-11-10T07:51:11.012Z,97041.56
2022-11-10T07:53:56.379Z,97069.16
2022-11-10T07:56:42.378Z,97080.88
2022-11-10T07:59:27.626Z,97048.25
2022-11-10T08:02:13.222Z,97055.00
2022-11-10T08:04:58.240Z,97063.31
2022-11-10T08:07:43.560Z,97082.13
2022-11-10T08:10:30.421Z,97107.69
2022-11-10T08:13:15.519Z,97096.16
2022-11-10T08:16:01.281Z,97089.44
2022-11-10T08:18:46.548Z,97083.38
2022-11-10T08:21:31.674Z,97107.63
2022-11-10T08:24:16.971Z,97111.03
2022-11-10T08:27:02.334Z,97124.56
2022-11-10T08:29:47.743Z,97128.19
2022-11-10T08:32:33.032Z,97119.88
2022-11-10T08:35:18.113Z,97134.31
2022-11-10T08:38:09.632Z,97130.31
2022-11-10T08:40:56.481Z,97140.28
2022-11-10T08:43:41.948Z,97135.69
2022-11-10T08:46:27.179Z,97171.38
2022-11-10T08:49:12.474Z,97169.63
2022-11-10T08:51:57.638Z,97156.16
2022-11-10T08:54:42.774Z,97221.00
2022-11-10T08:57:28.033Z,97193.66
2022-11-10T09:00:14.943Z,97199.16
2022-11-10T09:03:09.038Z,97198.28
2022-11-10T09:05:58.239Z,97199.34
2022-11-10T09:08:43.980Z,97196.09
2022-11-10T09:11:30.750Z,97211.56
2022-11-10T09:14:15.732Z,97211.78
2022-11-10T09:17:01.088Z,97233.19
2022-11-10T09:19:46.408Z,97225.22
2022-11-10T09:22:31.747Z,97227.34
2022-11-10T09:25:17.049Z,97214.88
2022-11-10T09:28:03.609Z,97279.81
2022-11-10T09:30:50.469Z,97215.44
2022-11-10T09:33:35.638Z,97287.78
2022-11-10T09:36:20.919Z,97290.03
2022-11-10T09:39:07.377Z,97273.16
2022-11-10T09:41:53.106Z,97308.34
2022-11-10T09:44:52.000Z,97313.31
2022-11-10T09:48:01.411Z,97327.16
2022-11-10T09:50:52.856Z,97323.31
2022-11-10T09:54:10.379Z,97342.19
2022-11-10T09:57:00.326Z,97337.09
2022-11-10T09:59:45.555Z,97341.41
2022-11-10T10:02:45.375Z,97313.28
2022-11-10T10:05:30.318Z,97349.97
2022-11-10T10:08:24.697Z,97342.50
2022-11-10T10:11:34.698Z,97311.72
2022-11-10T10:14:42.049Z,97341.44
2022-11-10T10:17:41.804Z,97338.91
2022-11-10T10:20:42.128Z,97357.50
2022-11-10T10:24:02.102Z,97350.94
2022-11-10T10:26:41.404Z,97318.91
2022-11-10T10:29:44.275Z,97333.66
2022-11-10T10:32:29.575Z,97335.22
2022-11-10T10:35:16.911Z,97363.16
2022-11-10T10:38:04.550Z,97322.47
2022-11-10T10:40:52.176Z,97359.66
2022-11-10T10:43:37.257Z,97318.91
2022-11-10T10:46:35.760Z,97357.50
2022-11-10T10:49:29.505Z,97358.88
2022-11-10T10:52:16.929Z,97355.84
2022-11-10T10:55:08.014Z,97330.91
2022-11-10T10:58:00.132Z,97355.94
2022-11-10T11:00:51.723Z,97332.84
2022-11-10T11:03:40.483Z,97367.38
2022-11-10T11:06:32.515Z,97372.16
2022-11-10T11:09:25.007Z,97371.16
2022-11-10T11:12:22.113Z,97368.63
2022-11-10T11:15:29.552Z,97328.50
2022-11-10T11:18:20.587Z,97365.69
2022-11-10T11:21:33.578Z,97350.63
2022-11-10T11:24:32.788Z,97323.81
2022-11-10T11:27:28.609Z,97322.34
2022-11-10T11:30:18.592Z,97337.53
2022-11-10T11:33:09.973Z,97376.66
2022-11-10T11:36:08.977Z,97357.44
2022-11-10T11:39:15.516Z,97372.44
2022-11-10T11:42:09.469Z,97370.41
2022-11-10T11:45:31.510Z,97366.69
2022-11-10T11:48:42.253Z,97362.59
2022-11-10T11:51:29.992Z,97361.97
2022-11-10T11:54:30.166Z,97362.16
2022-11-10T11:57:40.569Z,97371.09
2022-11-10T12:00:26.280Z,97383.31
2022-11-10T12:03:19.274Z,97345.66
2022-11-10T12:06:26.054Z,97383.84
2022-11-10T12:09:35.904Z,97390.19
2022-11-10T12:12:53.362Z,97386.09
2022-11-10T12:15:49.653Z,97374.97
2022-11-10T12:18:38.180Z,97361.94
2022-11-10T12:21:29.660Z,97379.84
2022-11-10T12:24:33.751Z,97382.22
2022-11-10T12:27:26.512Z,97372.56
2022-11-10T12:30:14.053Z,97369.53
2022-11-10T12:33:05.294Z,97349.69
2022-11-10T12:35:53.980Z,97369.50
2022-11-10T12:39:18.710Z,97383.69
2022-11-10T12:42:05.428Z,97356.16
2022-11-10T12:44:56.755Z,97383.13
2022-11-10T12:47:45.520Z,97387.75
2022-11-10T12:51:10.015Z,97364.91
2022-11-10T12:53:55.403Z,97377.38
2022-11-10T12:56:47.844Z,97386.81
2022-11-10T12:59:41.578Z,97397.72
2022-11-10T13:02:42.962Z,97402.59
2022-11-10T13:05:33.486Z,97400.31
2022-11-10T13:08:42.530Z,97409.41
2022-11-10T13:11:35.492Z,97418.13
2022-11-10T13:14:24.156Z,97417.66
2022-11-10T13:17:28.140Z,97434.19
2022-11-10T13:20:38.632Z,97424.69
2022-11-10T13:23:26.578Z,97442.09
2022-11-10T13:26:55.321Z,97438.03
2022-11-10T13:29:43.418Z,97445.47
2022-11-10T13:32:33.469Z,97448.78
2022-11-10T13:35:45.377Z,97445.72
2022-11-10T13:38:39.731Z,97423.16
2022-11-10T13:41:26.550Z,97444.75
2022-11-10T13:44:24.824Z,97425.09
2022-11-10T13:47:09.855Z,97452.28
2022-11-10T13:50:20.997Z,97451.72
2022-11-10T13:53:18.435Z,97444.69
2022-11-10T13:56:24.614Z,97455.00
2022-11-10T13:59:22.696Z,97448.41
2022-11-10T14:02:46.997Z,97435.56
2022-11-10T14:05:33.952Z,97438.19
2022-11-10T14:08:23.471Z,97397.25
2022-11-10T14:11:24.129Z,97397.44
2022-11-10T14:14:23.881Z,97412.97
2022-11-10T14:17:28.366Z,97431.59
2022-11-10T14:20:32.636Z,97448.19
2022-11-10T14:23:42.419Z,97460.09
2022-11-10T14:26:42.970Z,97462.31
2022-11-10T14:29:35.975Z,97466.22
2022-11-10T14:32:24.736Z,97466.09
2022-11-10T14:35:22.558Z,97471.88
2022-11-10T14:38:22.549Z,97459.00
2022-11-10T14:41:17.487Z,97417.72
2022-11-10T14:44:05.779Z,97458.94
2022-11-10T14:46:51.494Z,97477.25
2022-11-10T14:49:36.591Z,97478.13
2022-11-10T14:52:22.259Z,97455.09
2022-11-10T14:55:13.248Z,97452.28
2022-11-10T14:58:10.444Z,97496.38
2022-11-10T15:00:55.815Z,97425.47
2022-11-10T15:03:42.707Z,97505.00
2022-11-10T15:06:28.604Z,97498.19
2022-11-10T15:09:24.273Z,97480.22
2022-11-10T15:12:21.164Z,97504.00
2022-11-10T15:15:22.464Z,97478.72
2022-11-10T15:18:30.001Z,97485.66
2022-11-10T15:21:20.216Z,97503.84
2022-11-10T15:24:06.336Z,97490.63
2022-11-10T15:26:51.590Z,97445.78
2022-11-10T15:29:37.894Z,97505.00
2022-11-10T15:32:28.584Z,97500.88
2022-11-10T15:35:22.811Z,97520.84
2022-11-10T15:38:19.613Z,97521.78
2022-11-10T15:41:11.699Z,97525.56
2022-11-10T15:43:57.216Z,97492.72
2022-11-10T15:46:43.158Z,97496.56
2022-11-10T15:49:32.769Z,97474.25
2022-11-10T15:52:21.552Z,97510.75
2022-11-10T15:55:21.935Z,97430.34
2022-11-10T15:58:19.372Z,97523.25
2022-11-10T16:01:04.694Z,97494.97
2022-11-10T16:03:49.976Z,97520.91
2022-11-10T16:06:35.266Z,97497.47
2022-11-10T16:09:20.571Z,97494.13
2022-11-10T16:12:09.169Z,97504.78
2022-11-10T16:14:55.251Z,97460.25
2022-11-10T16:17:40.989Z,97531.72
2022-11-10T16:20:26.153Z,97526.69
2022-11-10T16:23:11.535Z,97516.91
2022-11-10T16:25:58.005Z,97432.22
2022-11-10T16:28:47.503Z,97534.84
2022-11-10T16:31:35.042Z,97512.78
2022-11-10T16:34:20.017Z,97498.53
2022-11-10T16:37:05.299Z,97355.94
2022-11-10T16:39:50.545Z,97516.69
2022-11-10T16:42:35.988Z,97510.72
2022-11-10T16:45:23.850Z,97546.41
2022-11-10T16:48:09.465Z,97541.19
2022-11-10T16:50:57.675Z,97558.00
2022-11-10T16:53:42.855Z,97559.16
2022-11-10T16:56:28.226Z,97537.34
2022-11-10T16:59:13.682Z,97527.72
2022-11-10T17:01:59.183Z,97535.75
2022-11-10T17:04:44.367Z,97528.41
2022-11-10T17:07:29.990Z,97545.91
2022-11-10T17:10:17.595Z,97562.72
2022-11-10T17:13:03.172Z,97546.16
2022-11-10T17:15:49.554Z,97556.13
2022-11-10T17:18:35.425Z,97545.53
2022-11-10T17:21:22.579Z,97552.13
2022-11-10T17:24:11.018Z,97564.19
2022-11-10T17:26:56.629Z,97549.25
2022-11-10T17:29:42.264Z,97554.81
2022-11-10T17:32:50.142Z,97586.31
2022-11-10T17:35:40.496Z,97586.28
2022-11-10T17:38:29.484Z,97545.09
2022-11-10T17:41:19.696Z,97557.47
2022-11-10T17:44:05.013Z,97560.59
2022-11-10T17:46:50.209Z,97547.50
2022-11-10T17:49:35.540Z,97578.44
2022-11-10T17:52:20.820Z,97557.22
2022-11-10T17:55:06.139Z,97546.47
2022-11-10T17:57:51.400Z,97568.50
2022-11-10T18:00:36.569Z,97585.56
2022-11-10T18:03:23.099Z,97576.09
2022-11-10T18:06:08.612Z,97499.75
2022-11-10T18:08:53.615Z,97559.28
2022-11-10T18:11:38.943Z,97569.00
2022-11-10T18:14:24.092Z,97578.44
2022-11-10T18:17:09.600Z,97574.66
2022-11-10T18:19:54.983Z,97557.88
2022-11-10T18:22:41.073Z,97607.53
2022-11-10T18:25:26.253Z,97577.09
2022-11-10T18:28:13.932Z,97563.44
2022-11-10T18:31:04.887Z,97598.81
2022-11-10T18:33:53.033Z,97509.25
2022-11-10T18:36:38.511Z,97553.13
2022-11-10T18:39:23.807Z,97612.22
2022-11-10T18:42:09.310Z,97551.03
2022-11-10T18:44:54.976Z,97577.75
2022-11-10T18:47:40.468Z,97574.13
2022-11-10T18:50:25.538Z,97569.06
2022-11-10T18:53:10.789Z,97564.59
2022-11-10T18:55:56.583Z,97606.34
2022-11-10T18:58:42.156Z,97612.38
2022-11-10T19:01:27.856Z,97625.44
2022-11-10T19:04:13.156Z,97632.25
2022-11-10T19:06:58.456Z,97624.41
2022-11-10T19:09:44.337Z,97566.84
2022-11-10T19:12:30.536Z,97610.75
2022-11-10T19:15:15.959Z,97635.31
2022-11-10T19:18:01.121Z,97591.88
2022-11-10T19:20:46.346Z,97648.84
2022-11-10T19:23:31.801Z,97650.75
2022-11-10T19:26:22.453Z,97671.22
2022-11-10T19:29:08.764Z,97657.22
2022-11-10T19:31:54.099Z,97673.59
2022-11-10T19:34:39.423Z,97657.88
2022-11-10T19:37:24.807Z,97660.91
2022-11-10T19:40:10.840Z,97641.22
2022-11-10T19:42:55.798Z,97637.41
2022-11-10T19:45:42.284Z,97687.22
2022-11-10T19:48:27.503Z,97631.16
2022-11-10T19:51:14.637Z,97702.47
2022-11-10T19:54:02.415Z,97710.31
2022-11-10T19:56:47.404Z,97699.66
2022-11-10T19:59:33.080Z,97710.31
2022-11-10T20:02:18.796Z,97673.31
2022-11-10T20:05:13.686Z,97674.31
2022-11-10T20:08:15.363Z,97620.97
2022-11-10T20:11:08.099Z,97674.78
2022-11-10T20:13:55.969Z,97712.59
2022-11-10T20:16:41.456Z,97714.47
2022-11-10T20:19:26.709Z,97655.91
2022-11-10T20:22:12.848Z,97723.03
2022-11-10T20:24:58.657Z,97704.81
2022-11-10T20:27:43.925Z,97725.72
2022-11-10T20:30:29.758Z,97726.97
2022-11-10T20:33:14.735Z,97713.03
2022-11-10T20:36:21.037Z,97724.06
2022-11-10T20:39:06.891Z,97729.91
2022-11-10T20:41:52.663Z,97671.78
2022-11-10T20:44:38.169Z,97707.44
2022-11-10T20:47:24.245Z,97607.16
2022-11-10T20:50:14.787Z,97711.34
2022-11-10T20:53:01.762Z,97702.88
2022-11-10T20:55:54.329Z,97629.97
2022-11-10T20:58:39.447Z,97585.50
2022-11-10T21:01:25.277Z,97684.94
2022-11-10T21:04:11.187Z,97682.41
2022-11-10T21:06:56.623Z,97694.31
2022-11-10T21:09:41.887Z,97675.22
2022-11-10T21:12:45.587Z,97721.41
2022-11-10T21:15:30.599Z,97668.59
2022-11-10T21:18:17.058Z,97691.16
2022-11-10T21:21:03.668Z,97679.84
2022-11-10T21:23:56.994Z,97665.00
2022-11-10T21:26:42.115Z,97657.03
2022-11-10T21:29:27.276Z,97685.75
2022-11-10T21:32:12.570Z,97699.94
2022-11-10T21:34:57.752Z,97617.88
2022-11-10T21:37:42.979Z,97698.25
2022-11-10T21:40:28.112Z,97671.97
2022-11-10T21:43:13.277Z,97686.75
2022-11-10T21:46:01.633Z,97681.38
2022-11-10T21:48:47.060Z,97702.72
2022-11-10T21:51:32.058Z,97745.50
2022-11-10T21:54:17.179Z,97727.06
2022-11-10T21:57:02.216Z,97704.38
2022-11-10T21:59:47.495Z,97727.00
2022-11-10T22:02:32.744Z,97700.25
2022-11-10T22:05:18.077Z,97712.31
2022-11-10T22:08:04.576Z,97707.41
2022-11-10T22:11:08.364Z,97710.25
2022-11-10T22:14:12.118Z,97663.72
2022-11-10T22:17:15.997Z,97715.22
2022-11-10T22:20:01.222Z,97680.69
2022-11-10T22:22:46.504Z,97683.47
2022-11-10T22:25:32.015Z,97685.72
2022-11-10T22:28:19.626Z,97715.84
2022-11-10T22:31:06.994Z,97721.38
2022-11-10T22:33:52.225Z,97706.84
2022-11-10T22:36:37.569Z,97685.41
2022-11-10T22:39:23.057Z,97715.44
2022-11-10T22:42:30.724Z,97731.88
2022-11-10T22:45:15.933Z,97691.59
2022-11-10T22:48:19.858Z,97702.03
2022-11-10T22:51:05.375Z,97705.22
2022-11-10T22:53:50.229Z,97745.69
2022-11-10T22:56:35.741Z,97724.59
2022-11-10T22:59:21.113Z,97724.41
2022-11-10T23:02:06.294Z,97745.66
2022-11-10T23:04:51.521Z,97743.91
2022-11-10T23:07:36.666Z,97708.25
2022-11-10T23:10:22.094Z,97744.25
2022-11-10T23:13:07.491Z,97724.59
2022-11-10T23:15:54.270Z,97701.38
2022-11-10T23:18:42.154Z,97724.16
2022-11-10T23:21:29.296Z,97734.59
2022-11-10T23:24:14.450Z,97660.09
2022-11-10T23:26:59.753Z,97742.53
2022-11-10T23:29:45.009Z,97744.25
2022-11-10T23:32:30.375Z,97729.81
2022-11-10T23:35:15.539Z,97759.91
2022-11-10T23:38:00.879Z,97721.44
2022-11-10T23:40:46.017Z,97732.81
2022-11-10T23:43:32.029Z,97761.41
2022-11-10T23:46:17.397Z,97730.41
2022-11-10T23:49:02.508Z,97724.38
2022-11-10T23:51:48.018Z,97767.81
2022-11-10T23:54:33.168Z,97706.53
2022-11-10T23:57:18.450Z,97727.75
